GYM weather

General José María Yáñez International Airport
Guaymas, Sonora, Mexico

Public forecast

Using degrees Celsius for public forecast. Weather courtesy of forecast.io.

Current aviation weather report (METAR) for General José María Yáñez International Airport

Retrieved 2019/10/20 23:41 UTC (0 seconds ago):

MMGM 202341Z 27014KT 10SM SKC 30/21 A2969

Aviation forecast (TAF) for General José María Yáñez International Airport

Retrieved 2019/10/20 18:55 UTC (4 hours ago):

TAF MMGM 201648Z 2018/2118 23012KT P6SM SKC FM210600 00000KT P6SM SKC